sensor_id;sensor_type;location;lat;lon;timestamp;pressure;altitude;pressure_sealevel;temperature;humidity
26083;BME280;13848;49.018;12.078;2023-02-28T00:01:45;98425.81;;;-1.41;64.77
26083;BME280;13848;49.018;12.078;2023-02-28T00:04:11;98422.66;;;-1.35;65.15
26083;BME280;13848;49.018;12.078;2023-02-28T00:06:37;98417.63;;;-1.38;64.92
26083;BME280;13848;49.018;12.078;2023-02-28T00:09:02;98422.69;;;-1.46;64.71
26083;BME280;13848;49.018;12.078;2023-02-28T00:11:28;98416.06;;;-1.40;65.31
26083;BME280;13848;49.018;12.078;2023-02-28T00:13:56;98418.00;;;-1.42;64.93
26083;BME280;13848;49.018;12.078;2023-02-28T00:16:22;98416.91;;;-1.61;66.04
26083;BME280;13848;49.018;12.078;2023-02-28T00:18:48;98416.06;;;-1.61;66.55
26083;BME280;13848;49.018;12.078;2023-02-28T00:21:15;98417.41;;;-1.46;65.80
26083;BME280;13848;49.018;12.078;2023-02-28T00:23:41;98414.00;;;-1.37;65.71
26083;BME280;13848;49.018;12.078;2023-02-28T00:26:10;98414.59;;;-1.54;66.05
26083;BME280;13848;49.018;12.078;2023-02-28T00:28:36;98410.72;;;-1.50;66.52
26083;BME280;13848;49.018;12.078;2023-02-28T00:31:04;98403.41;;;-1.57;65.89
26083;BME280;13848;49.018;12.078;2023-02-28T00:33:29;98400.38;;;-1.53;65.75
26083;BME280;13848;49.018;12.078;2023-02-28T00:36:06;98403.50;;;-1.48;65.56
26083;BME280;13848;49.018;12.078;2023-02-28T00:38:33;98402.06;;;-1.52;65.48
26083;BME280;13848;49.018;12.078;2023-02-28T00:40:59;98407.34;;;-1.52;65.24
26083;BME280;13848;49.018;12.078;2023-02-28T00:43:25;98409.28;;;-1.54;65.18
26083;BME280;13848;49.018;12.078;2023-02-28T00:45:50;98398.63;;;-1.64;66.20
26083;BME280;13848;49.018;12.078;2023-02-28T00:48:18;98401.66;;;-1.68;66.63
26083;BME280;13848;49.018;12.078;2023-02-28T00:50:44;98392.84;;;-1.57;65.98
26083;BME280;13848;49.018;12.078;2023-02-28T00:53:09;98398.97;;;-1.57;65.68
26083;BME280;13848;49.018;12.078;2023-02-28T00:55:35;98391.53;;;-1.63;66.11
26083;BME280;13848;49.018;12.078;2023-02-28T00:58:01;98394.13;;;-1.73;66.40
26083;BME280;13848;49.018;12.078;2023-02-28T01:00:27;98384.81;;;-1.88;66.78
26083;BME280;13848;49.018;12.078;2023-02-28T01:02:53;98389.91;;;-1.75;66.66
26083;BME280;13848;49.018;12.078;2023-02-28T01:05:20;98382.44;;;-1.70;66.05
26083;BME280;13848;49.018;12.078;2023-02-28T01:07:46;98382.63;;;-1.83;67.18
26083;BME280;13848;49.018;12.078;2023-02-28T01:10:12;98384.56;;;-1.85;66.83
26083;BME280;13848;49.018;12.078;2023-02-28T01:12:38;98382.44;;;-1.70;66.53
26083;BME280;13848;49.018;12.078;2023-02-28T01:15:05;98376.75;;;-1.87;66.77
26083;BME280;13848;49.018;12.078;2023-02-28T01:17:31;98386.38;;;-1.85;67.12
26083;BME280;13848;49.018;12.078;2023-02-28T01:19:57;98380.34;;;-1.88;67.49
26083;BME280;13848;49.018;12.078;2023-02-28T01:22:25;98377.75;;;-1.99;67.90
26083;BME280;13848;49.018;12.078;2023-02-28T01:24:51;98379.84;;;-1.81;67.20
26083;BME280;13848;49.018;12.078;2023-02-28T01:27:17;98380.50;;;-1.68;71.43
26083;BME280;13848;49.018;12.078;2023-02-28T01:29:43;98377.00;;;-0.35;69.59
26083;BME280;13848;49.018;12.078;2023-02-28T01:32:09;98374.88;;;-0.82;66.56
26083;BME280;13848;49.018;12.078;2023-02-28T01:34:34;98380.22;;;-1.33;66.71
26083;BME280;13848;49.018;12.078;2023-02-28T01:37:00;98378.69;;;-1.56;66.83
26083;BME280;13848;49.018;12.078;2023-02-28T01:39:28;98380.06;;;-1.73;67.48
26083;BME280;13848;49.018;12.078;2023-02-28T01:41:54;98372.06;;;-1.83;67.79
26083;BME280;13848;49.018;12.078;2023-02-28T01:45:00;98370.63;;;-1.87;67.98
26083;BME280;13848;49.018;12.078;2023-02-28T01:47:29;98375.06;;;-1.88;68.31
26083;BME280;13848;49.018;12.078;2023-02-28T01:49:57;98377.25;;;-1.93;68.06
26083;BME280;13848;49.018;12.078;2023-02-28T01:52:24;98370.56;;;-1.97;68.54
26083;BME280;13848;49.018;12.078;2023-02-28T01:54:54;98366.63;;;-1.81;67.96
26083;BME280;13848;49.018;12.078;2023-02-28T01:57:24;98368.06;;;-1.77;67.65
26083;BME280;13848;49.018;12.078;2023-02-28T01:59:54;98373.50;;;-1.79;67.40
26083;BME280;13848;49.018;12.078;2023-02-28T02:02:23;98365.53;;;-2.00;68.04
26083;BME280;13848;49.018;12.078;2023-02-28T02:04:52;98358.75;;;-1.93;68.04
26083;BME280;13848;49.018;12.078;2023-02-28T02:07:20;98353.09;;;-1.88;67.64
26083;BME280;13848;49.018;12.078;2023-02-28T02:09:47;98354.56;;;-1.95;68.33
26083;BME280;13848;49.018;12.078;2023-02-28T02:12:21;98350.41;;;-2.09;68.21
26083;BME280;13848;49.018;12.078;2023-02-28T02:15:00;98355.97;;;-2.12;68.49
26083;BME280;13848;49.018;12.078;2023-02-28T02:17:33;98354.03;;;-2.10;68.59
26083;BME280;13848;49.018;12.078;2023-02-28T02:23:26;98359.25;;;-2.20;69.48
26083;BME280;13848;49.018;12.078;2023-02-28T02:26:10;98356.19;;;-2.15;68.58
26083;BME280;13848;49.018;12.078;2023-02-28T02:28:56;98353.56;;;-2.15;68.54
26083;BME280;13848;49.018;12.078;2023-02-28T02:34:42;98345.31;;;-2.22;68.70
26083;BME280;13848;49.018;12.078;2023-02-28T02:37:17;98352.84;;;-2.17;68.73
26083;BME280;13848;49.018;12.078;2023-02-28T02:39:50;98343.59;;;-2.11;68.92
26083;BME280;13848;49.018;12.078;2023-02-28T02:42:22;98355.69;;;-2.09;68.57
26083;BME280;13848;49.018;12.078;2023-02-28T02:44:55;98356.28;;;-2.05;68.55
26083;BME280;13848;49.018;12.078;2023-02-28T02:47:26;98359.03;;;-1.96;67.95
26083;BME280;13848;49.018;12.078;2023-02-28T02:49:57;98361.06;;;-1.99;68.20
26083;BME280;13848;49.018;12.078;2023-02-28T02:52:29;98359.28;;;-1.99;68.55
26083;BME280;13848;49.018;12.078;2023-02-28T02:54:57;98368.47;;;-2.14;68.97
26083;BME280;13848;49.018;12.078;2023-02-28T02:57:31;98363.19;;;-2.14;69.32
26083;BME280;13848;49.018;12.078;2023-02-28T02:59:59;98370.63;;;-2.19;68.98
26083;BME280;13848;49.018;12.078;2023-02-28T03:02:27;98362.69;;;-2.08;68.67
26083;BME280;13848;49.018;12.078;2023-02-28T03:04:59;98368.06;;;-2.09;68.58
26083;BME280;13848;49.018;12.078;2023-02-28T03:07:26;98368.44;;;-2.03;68.55
26083;BME280;13848;49.018;12.078;2023-02-28T03:09:53;98367.47;;;-2.02;68.70
26083;BME280;13848;49.018;12.078;2023-02-28T03:12:20;98364.78;;;-1.91;68.81
26083;BME280;13848;49.018;12.078;2023-02-28T03:14:56;98362.84;;;-1.89;68.63
26083;BME280;13848;49.018;12.078;2023-02-28T03:17:37;98362.75;;;-1.98;68.27
26083;BME280;13848;49.018;12.078;2023-02-28T03:20:15;98365.00;;;-1.94;68.46
26083;BME280;13848;49.018;12.078;2023-02-28T03:22:51;98366.19;;;-1.87;68.21
26083;BME280;13848;49.018;12.078;2023-02-28T03:25:21;98366.69;;;-1.93;68.25
26083;BME280;13848;49.018;12.078;2023-02-28T03:28:00;98366.34;;;-1.99;68.38
26083;BME280;13848;49.018;12.078;2023-02-28T03:30:35;98363.41;;;-2.17;69.23
26083;BME280;13848;49.018;12.078;2023-02-28T03:33:06;98362.91;;;-2.11;68.79
26083;BME280;13848;49.018;12.078;2023-02-28T03:35:36;98365.53;;;-2.00;68.51
26083;BME280;13848;49.018;12.078;2023-02-28T03:38:08;98363.84;;;-2.01;68.47
26083;BME280;13848;49.018;12.078;2023-02-28T03:40:37;98362.69;;;-2.08;68.69
26083;BME280;13848;49.018;12.078;2023-02-28T03:43:09;98366.53;;;-2.12;68.64
26083;BME280;13848;49.018;12.078;2023-02-28T03:45:38;98364.22;;;-2.05;68.83
26083;BME280;13848;49.018;12.078;2023-02-28T03:48:09;98367.69;;;-2.05;68.63
26083;BME280;13848;49.018;12.078;2023-02-28T03:50:41;98360.84;;;-1.96;68.25
26083;BME280;13848;49.018;12.078;2023-02-28T03:53:11;98352.84;;;-2.17;69.02
26083;BME280;13848;49.018;12.078;2023-02-28T03:55:42;98358.84;;;-2.15;69.35
26083;BME280;13848;49.018;12.078;2023-02-28T03:58:14;98364.09;;;-2.04;68.89
26083;BME280;13848;49.018;12.078;2023-02-28T04:00:45;98365.19;;;-2.06;68.72
26083;BME280;13848;49.018;12.078;2023-02-28T04:03:12;98362.41;;;-2.05;69.10
26083;BME280;13848;49.018;12.078;2023-02-28T04:05:48;98366.69;;;-1.93;69.21
26083;BME280;13848;49.018;12.078;2023-02-28T04:08:15;98365.00;;;-1.94;68.80
26083;BME280;13848;49.018;12.078;2023-02-28T04:10:42;98370.56;;;-1.97;68.54
26083;BME280;13848;49.018;12.078;2023-02-28T04:13:10;98367.78;;;-1.95;69.05
26083;BME280;13848;49.018;12.078;2023-02-28T04:15:36;98372.28;;;-2.07;69.50
26083;BME280;13848;49.018;12.078;2023-02-28T04:18:02;98366.03;;;-2.06;69.32
26083;BME280;13848;49.018;12.078;2023-02-28T04:20:28;98365.06;;;-2.05;69.12
26083;BME280;13848;49.018;12.078;2023-02-28T04:22:55;98372.00;;;-2.04;69.38
26083;BME280;13848;49.018;12.078;2023-02-28T04:25:21;98360.06;;;-2.19;69.48
26083;BME280;13848;49.018;12.078;2023-02-28T04:27:47;98362.97;;;-2.33;70.17
26083;BME280;13848;49.018;12.078;2023-02-28T04:30:13;98363.81;;;-2.33;69.96
26083;BME280;13848;49.018;12.078;2023-02-28T04:32:39;98371.81;;;-2.12;70.08
26083;BME280;13848;49.018;12.078;2023-02-28T04:35:06;98362.31;;;-2.15;69.28
26083;BME280;13848;49.018;12.078;2023-02-28T04:37:32;98365.59;;;-2.22;69.43
26083;BME280;13848;49.018;12.078;2023-02-28T04:39:59;98365.34;;;-2.19;69.65
26083;BME280;13848;49.018;12.078;2023-02-28T04:42:25;98361.25;;;-2.12;69.09
26083;BME280;13848;49.018;12.078;2023-02-28T04:44:51;98361.75;;;-2.18;69.99
26083;BME280;13848;49.018;12.078;2023-02-28T04:47:17;98364.16;;;-2.26;69.86
26083;BME280;13848;49.018;12.078;2023-02-28T04:49:43;98362.75;;;-2.30;69.64
26083;BME280;13848;49.018;12.078;2023-02-28T04:52:09;98363.59;;;-2.30;70.19
26083;BME280;13848;49.018;12.078;2023-02-28T04:54:35;98361.06;;;-2.31;70.58
26083;BME280;13848;49.018;12.078;2023-02-28T04:57:02;98359.13;;;-2.29;70.35
26083;BME280;13848;49.018;12.078;2023-02-28T04:59:28;98364.41;;;-2.29;70.08
26083;BME280;13848;49.018;12.078;2023-02-28T05:01:54;98356.38;;;-2.28;70.42
26083;BME280;13848;49.018;12.078;2023-02-28T05:04:20;98372.81;;;-2.24;69.80
26083;BME280;13848;49.018;12.078;2023-02-28T05:06:46;98369.44;;;-2.26;70.04
26083;BME280;13848;49.018;12.078;2023-02-28T05:09:12;98369.44;;;-2.26;70.24
26083;BME280;13848;49.018;12.078;2023-02-28T05:11:38;98367.53;;;-2.24;70.19
26083;BME280;13848;49.018;12.078;2023-02-28T05:14:09;98371.81;;;-2.12;70.30
26083;BME280;13848;49.018;12.078;2023-02-28T05:16:35;98368.47;;;-2.14;69.91
26083;BME280;13848;49.018;12.078;2023-02-28T05:19:01;98366.53;;;-2.12;69.56
26083;BME280;13848;49.018;12.078;2023-02-28T05:21:29;98363.19;;;-2.14;69.76
26083;BME280;13848;49.018;12.078;2023-02-28T05:23:58;98368.00;;;-2.19;69.80
26083;BME280;13848;49.018;12.078;2023-02-28T05:26:24;98371.31;;;-2.06;69.35
26083;BME280;13848;49.018;12.078;2023-02-28T05:28:50;98369.13;;;-2.01;69.54
26083;BME280;13848;49.018;12.078;2023-02-28T05:31:18;98375.25;;;-2.00;69.00
26083;BME280;13848;49.018;12.078;2023-02-28T05:33:44;98384.66;;;-2.07;69.18
26083;BME280;13848;49.018;12.078;2023-02-28T05:36:10;98388.00;;;-2.05;69.03
26083;BME280;13848;49.018;12.078;2023-02-28T05:38:36;98379.69;;;-2.01;68.90
26083;BME280;13848;49.018;12.078;2023-02-28T05:41:05;98387.16;;;-2.06;68.95
26083;BME280;13848;49.018;12.078;2023-02-28T05:43:31;98373.25;;;-2.08;69.27
26083;BME280;13848;49.018;12.078;2023-02-28T05:45:57;98377.75;;;-1.99;68.64
26083;BME280;13848;49.018;12.078;2023-02-28T05:48:24;98381.13;;;-1.97;68.42
26083;BME280;13848;49.018;12.078;2023-02-28T05:50:50;98378.53;;;-2.08;68.51
26083;BME280;13848;49.018;12.078;2023-02-28T05:53:16;98377.19;;;-2.02;68.27
26083;BME280;13848;49.018;12.078;2023-02-28T05:55:42;98378.03;;;-2.02;68.16
26083;BME280;13848;49.018;12.078;2023-02-28T05:58:08;98377.09;;;-2.12;68.18
26083;BME280;13848;49.018;12.078;2023-02-28T06:00:34;98388.59;;;-2.02;68.78
26083;BME280;13848;49.018;12.078;2023-02-28T06:02:59;98388.44;;;-1.89;67.89
26083;BME280;13848;49.018;12.078;2023-02-28T06:05:27;98381.88;;;-2.06;68.21
26083;BME280;13848;49.018;12.078;2023-02-28T06:07:53;98388.34;;;-1.99;67.87
26083;BME280;13848;49.018;12.078;2023-02-28T06:10:19;98393.09;;;-1.93;68.23
26083;BME280;13848;49.018;12.078;2023-02-28T06:12:45;98397.19;;;-1.89;66.78
26083;BME280;13848;49.018;12.078;2023-02-28T06:15:12;98393.34;;;-1.84;67.14
26083;BME280;13848;49.018;12.078;2023-02-28T06:17:38;98397.19;;;-1.89;67.38
26083;BME280;13848;49.018;12.078;2023-02-28T06:20:05;98401.59;;;-1.78;66.87
26083;BME280;13848;49.018;12.078;2023-02-28T06:22:33;98398.31;;;-1.70;66.96
26083;BME280;13848;49.018;12.078;2023-02-28T06:24:59;98405.03;;;-1.66;66.79
26083;BME280;13848;49.018;12.078;2023-02-28T06:27:25;98402.25;;;-1.65;65.62
26083;BME280;13848;49.018;12.078;2023-02-28T06:29:53;98407.44;;;-1.74;66.29
26083;BME280;13848;49.018;12.078;2023-02-28T06:32:20;98407.44;;;-1.74;65.45
26083;BME280;13848;49.018;12.078;2023-02-28T06:34:45;98406.81;;;-1.99;65.67
26083;BME280;13848;49.018;12.078;2023-02-28T06:37:11;98410.72;;;-1.82;66.08
26083;BME280;13848;49.018;12.078;2023-02-28T06:39:39;98409.16;;;-1.73;65.46
26083;BME280;13848;49.018;12.078;2023-02-28T06:42:06;98419.16;;;-1.56;65.22
26083;BME280;13848;49.018;12.078;2023-02-28T06:44:32;98417.38;;;-1.55;65.05
26083;BME280;13848;49.018;12.078;2023-02-28T06:46:58;98421.16;;;-1.48;64.67
26083;BME280;13848;49.018;12.078;2023-02-28T06:49:24;98419.25;;;-1.25;63.66
26083;BME280;13848;49.018;12.078;2023-02-28T06:51:50;98424.47;;;-1.14;63.06
26083;BME280;13848;49.018;12.078;2023-02-28T06:54:16;98425.53;;;-0.96;63.70
26083;BME280;13848;49.018;12.078;2023-02-28T06:56:43;98417.28;;;-0.72;63.03
26083;BME280;13848;49.018;12.078;2023-02-28T06:59:09;98423.19;;;-0.59;61.33
26083;BME280;13848;49.018;12.078;2023-02-28T07:01:35;98428.00;;;-0.43;61.74
26083;BME280;13848;49.018;12.078;2023-02-28T07:04:01;98416.66;;;0.05;61.91
26083;BME280;13848;49.018;12.078;2023-02-28T07:06:27;98426.91;;;0.19;59.58
26083;BME280;13848;49.018;12.078;2023-02-28T07:08:54;98423.94;;;0.22;59.53
26083;BME280;13848;49.018;12.078;2023-02-28T07:11:20;98420.88;;;0.56;58.67
26083;BME280;13848;49.018;12.078;2023-02-28T07:13:48;98432.91;;;0.50;60.05
26083;BME280;13848;49.018;12.078;2023-02-28T07:16:14;98428.97;;;0.74;58.96
26083;BME280;13848;49.018;12.078;2023-02-28T07:18:40;98422.25;;;0.89;57.51
26083;BME280;13848;49.018;12.078;2023-02-28T07:21:08;98427.00;;;1.05;57.23
26083;BME280;13848;49.018;12.078;2023-02-28T07:23:35;98424.84;;;1.18;56.68
26083;BME280;13848;49.018;12.078;2023-02-28T07:26:01;98424.38;;;1.32;57.08
26083;BME280;13848;49.018;12.078;2023-02-28T07:28:27;98431.75;;;0.92;56.01
26083;BME280;13848;49.018;12.078;2023-02-28T07:30:55;98430.47;;;0.96;55.27
26083;BME280;13848;49.018;12.078;2023-02-28T07:33:21;98435.78;;;1.52;57.51
26083;BME280;13848;49.018;12.078;2023-02-28T07:35:46;98430.91;;;1.75;56.09
26083;BME280;13848;49.018;12.078;2023-02-28T07:38:12;98434.72;;;1.91;56.90
26083;BME280;13848;49.018;12.078;2023-02-28T07:40:39;98427.34;;;2.12;55.95
26083;BME280;13848;49.018;12.078;2023-02-28T07:43:05;98426.44;;;2.21;55.87
26083;BME280;13848;49.018;12.078;2023-02-28T07:45:32;98427.19;;;2.85;54.58
26083;BME280;13848;49.018;12.078;2023-02-28T07:47:59;98434.66;;;2.46;53.57
26083;BME280;13848;49.018;12.078;2023-02-28T07:50:26;98435.88;;;2.51;54.30
26083;BME280;13848;49.018;12.078;2023-02-28T07:52:52;98439.16;;;2.63;54.42
26083;BME280;13848;49.018;12.078;2023-02-28T07:55:18;98427.16;;;3.03;53.95
26083;BME280;13848;49.018;12.078;2023-02-28T07:57:44;98438.22;;;2.90;52.18
26083;BME280;13848;49.018;12.078;2023-02-28T08:00:12;98441.69;;;3.08;53.71
26083;BME280;13848;49.018;12.078;2023-02-28T08:02:38;98437.06;;;3.44;52.65
26083;BME280;13848;49.018;12.078;2023-02-28T08:05:07;98430.47;;;3.57;52.67
26083;BME280;13848;49.018;12.078;2023-02-28T08:07:33;98437.91;;;3.45;51.61
26083;BME280;13848;49.018;12.078;2023-02-28T08:09:59;98443.84;;;3.65;52.81
26083;BME280;13848;49.018;12.078;2023-02-28T08:12:25;98438.00;;;3.35;51.09
26083;BME280;13848;49.018;12.078;2023-02-28T08:14:51;98444.41;;;3.42;52.30
26083;BME280;13848;49.018;12.078;2023-02-28T08:17:17;98431.66;;;3.96;50.27
26083;BME280;13848;49.018;12.078;2023-02-28T08:19:45;98439.66;;;3.96;51.06
26083;BME280;13848;49.018;12.078;2023-02-28T08:22:12;98446.88;;;3.70;51.41
26083;BME280;13848;49.018;12.078;2023-02-28T08:24:39;98448.31;;;3.30;50.86
26083;BME280;13848;49.018;12.078;2023-02-28T08:27:06;98450.09;;;3.82;48.25
26083;BME280;13848;49.018;12.078;2023-02-28T08:29:32;98443.63;;;3.92;50.05
26083;BME280;13848;49.018;12.078;2023-02-28T08:31:58;98447.78;;;4.29;49.26
26083;BME280;13848;49.018;12.078;2023-02-28T08:34:24;98451.31;;;4.54;49.74
26083;BME280;13848;49.018;12.078;2023-02-28T08:36:50;98453.56;;;3.74;47.67
26083;BME280;13848;49.018;12.078;2023-02-28T08:39:17;98453.78;;;4.31;47.71
26083;BME280;13848;49.018;12.078;2023-02-28T08:41:43;98454.00;;;4.04;47.71
26083;BME280;13848;49.018;12.078;2023-02-28T08:44:09;98454.06;;;4.20;49.33
26083;BME280;13848;49.018;12.078;2023-02-28T08:46:35;98456.16;;;4.67;48.81
26083;BME280;13848;49.018;12.078;2023-02-28T08:49:01;98455.09;;;4.27;48.59
26083;BME280;13848;49.018;12.078;2023-02-28T08:51:28;98459.19;;;4.96;49.37
26083;BME280;13848;49.018;12.078;2023-02-28T08:53:56;98468.88;;;5.22;47.99
26083;BME280;13848;49.018;12.078;2023-02-28T08:56:24;98462.47;;;4.58;45.67
26083;BME280;13848;49.018;12.078;2023-02-28T08:58:50;98463.78;;;4.29;46.79
26083;BME280;13848;49.018;12.078;2023-02-28T09:01:18;98468.88;;;4.89;47.35
26083;BME280;13848;49.018;12.078;2023-02-28T09:03:45;98468.88;;;5.14;47.04
26083;BME280;13848;49.018;12.078;2023-02-28T09:06:12;98462.84;;;5.20;45.25
26083;BME280;13848;49.018;12.078;2023-02-28T09:08:39;98458.69;;;5.17;46.26
26083;BME280;13848;49.018;12.078;2023-02-28T09:11:05;98460.03;;;5.05;42.42
26083;BME280;13848;49.018;12.078;2023-02-28T09:13:33;98459.19;;;4.88;45.16
26083;BME280;13848;49.018;12.078;2023-02-28T09:16:00;98456.47;;;5.53;46.43
26083;BME280;13848;49.018;12.078;2023-02-28T09:18:27;98456.03;;;5.97;44.90
26083;BME280;13848;49.018;12.078;2023-02-28T09:20:53;98458.44;;;5.59;44.03
26083;BME280;13848;49.018;12.078;2023-02-28T09:23:19;98460.47;;;5.57;45.17
26083;BME280;13848;49.018;12.078;2023-02-28T09:25:47;98454.19;;;6.29;44.27
26083;BME280;13848;49.018;12.078;2023-02-28T09:28:15;98460.19;;;5.03;42.85
26083;BME280;13848;49.018;12.078;2023-02-28T09:30:44;98468.50;;;5.33;44.24
26083;BME280;13848;49.018;12.078;2023-02-28T09:33:11;98460.06;;;5.93;42.25
26083;BME280;13848;49.018;12.078;2023-02-28T09:35:37;98461.91;;;6.55;44.16
26083;BME280;13848;49.018;12.078;2023-02-28T09:38:03;98458.78;;;6.12;42.15
26083;BME280;13848;49.018;12.078;2023-02-28T09:40:29;98464.97;;;6.12;44.16
26083;BME280;13848;49.018;12.078;2023-02-28T09:42:57;98460.84;;;6.87;43.19
26083;BME280;13848;49.018;12.078;2023-02-28T09:45:29;98457.09;;;6.50;43.14
26083;BME280;13848;49.018;12.078;2023-02-28T09:47:59;98462.16;;;6.45;41.85
26083;BME280;13848;49.018;12.078;2023-02-28T09:50:31;98467.34;;;6.92;43.09
26083;BME280;13848;49.018;12.078;2023-02-28T09:52:59;98462.63;;;7.55;42.59
26083;BME280;13848;49.018;12.078;2023-02-28T09:55:30;98462.31;;;8.39;51.60
26083;BME280;13848;49.018;12.078;2023-02-28T09:58:00;98459.72;;;8.82;44.26
26083;BME280;13848;49.018;12.078;2023-02-28T10:00:30;98463.56;;;9.43;42.78
26083;BME280;13848;49.018;12.078;2023-02-28T10:03:10;98468.13;;;9.21;40.97
26083;BME280;13848;49.018;12.078;2023-02-28T10:05:47;98470.16;;;8.55;40.22
26083;BME280;13848;49.018;12.078;2023-02-28T10:08:16;98465.47;;;7.68;38.80
26083;BME280;13848;49.018;12.078;2023-02-28T10:10:45;98468.56;;;7.95;40.17
26083;BME280;13848;49.018;12.078;2023-02-28T10:13:21;98480.78;;;8.12;41.29
26083;BME280;13848;49.018;12.078;2023-02-28T10:15:51;98467.44;;;8.70;38.34
26083;BME280;13848;49.018;12.078;2023-02-28T10:18:24;98472.53;;;8.14;40.13
26083;BME280;13848;49.018;12.078;2023-02-28T10:20:53;98463.66;;;8.86;38.71
26083;BME280;13848;49.018;12.078;2023-02-28T10:23:22;98480.75;;;8.42;39.39
26083;BME280;13848;49.018;12.078;2023-02-28T10:25:53;98474.94;;;7.79;37.87
26083;BME280;13848;49.018;12.078;2023-02-28T10:28:20;98471.50;;;8.00;40.07
26083;BME280;13848;49.018;12.078;2023-02-28T10:30:48;98475.31;;;8.93;39.07
26083;BME280;13848;49.018;12.078;2023-02-28T10:33:19;98475.31;;;9.36;38.62
26083;BME280;13848;49.018;12.078;2023-02-28T10:35:48;98472.63;;;8.93;37.86
26083;BME280;13848;49.018;12.078;2023-02-28T10:38:17;98471.41;;;9.45;38.95
26083;BME280;13848;49.018;12.078;2023-02-28T10:40:44;98472.56;;;8.50;38.34
26083;BME280;13848;49.018;12.078;2023-02-28T10:43:19;98471.47;;;8.44;39.14
26083;BME280;13848;49.018;12.078;2023-02-28T10:45:55;98475.88;;;8.67;39.33
26083;BME280;13848;49.018;12.078;2023-02-28T10:48:34;98476.34;;;9.35;36.33
26083;BME280;13848;49.018;12.078;2023-02-28T10:51:04;98476.91;;;9.30;38.48
26083;BME280;13848;49.018;12.078;2023-02-28T10:53:33;98472.88;;;9.19;36.75
26083;BME280;13848;49.018;12.078;2023-02-28T10:56:02;98466.88;;;8.96;39.02
26083;BME280;13848;49.018;12.078;2023-02-28T10:58:30;98480.34;;;9.73;38.84
26083;BME280;13848;49.018;12.078;2023-02-28T11:00:56;98473.53;;;10.12;37.27
26083;BME280;13848;49.018;12.078;2023-02-28T11:03:30;98468.25;;;8.92;35.59
26083;BME280;13848;49.018;12.078;2023-02-28T11:05:57;98465.47;;;9.00;37.75
26083;BME280;13848;49.018;12.078;2023-02-28T11:08:24;98462.63;;;9.08;37.74
26083;BME280;13848;49.018;12.078;2023-02-28T11:10:55;98468.63;;;8.67;37.87
26083;BME280;13848;49.018;12.078;2023-02-28T11:13:32;98455.03;;;9.12;37.58
26083;BME280;13848;49.018;12.078;2023-02-28T11:16:00;98466.44;;;9.42;38.56
26083;BME280;13848;49.018;12.078;2023-02-28T11:18:29;98474.41;;;9.28;36.65
26083;BME280;13848;49.018;12.078;2023-02-28T11:20:58;98462.53;;;10.48;36.85
26083;BME280;13848;49.018;12.078;2023-02-28T11:23:29;98465.19;;;11.42;35.37
26083;BME280;13848;49.018;12.078;2023-02-28T11:25:58;98460.38;;;10.91;35.39
26083;BME280;13848;49.018;12.078;2023-02-28T11:28:27;98461.56;;;10.62;35.41
26083;BME280;13848;49.018;12.078;2023-02-28T11:31:05;98460.44;;;10.44;34.96
26083;BME280;13848;49.018;12.078;2023-02-28T11:33:37;98452.81;;;10.60;35.71
26083;BME280;13848;49.018;12.078;2023-02-28T11:36:10;98456.41;;;10.74;36.19
26083;BME280;13848;49.018;12.078;2023-02-28T11:38:38;98450.88;;;10.34;35.87
26083;BME280;13848;49.018;12.078;2023-02-28T11:41:16;98467.06;;;9.72;36.49
26083;BME280;13848;49.018;12.078;2023-02-28T11:44:00;98459.66;;;9.46;37.80
26083;BME280;13848;49.018;12.078;2023-02-28T11:46:33;98451.13;;;10.05;37.67
26083;BME280;13848;49.018;12.078;2023-02-28T11:49:12;98459.53;;;10.23;39.71
26083;BME280;13848;49.018;12.078;2023-02-28T11:51:47;98457.38;;;9.49;37.31
26083;BME280;13848;49.018;12.078;2023-02-28T11:54:30;98453.47;;;10.69;36.71
26083;BME280;13848;49.018;12.078;2023-02-28T11:57:03;98455.91;;;10.44;36.11
26083;BME280;13848;49.018;12.078;2023-02-28T11:59:51;98449.84;;;9.66;36.02
26083;BME280;13848;49.018;12.078;2023-02-28T12:02:25;98453.47;;;10.69;37.85
26083;BME280;13848;49.018;12.078;2023-02-28T12:05:05;98446.56;;;10.47;37.15
26083;BME280;13848;49.018;12.078;2023-02-28T12:07:44;98443.28;;;10.58;36.54
26083;BME280;13848;49.018;12.078;2023-02-28T12:10:21;98448.72;;;9.82;35.74
26083;BME280;13848;49.018;12.078;2023-02-28T12:12:54;98449.78;;;9.88;36.19
26083;BME280;13848;49.018;12.078;2023-02-28T12:15:29;98456.50;;;10.05;36.34
26083;BME280;13848;49.018;12.078;2023-02-28T12:18:13;98445.56;;;9.78;35.89
26083;BME280;13848;49.018;12.078;2023-02-28T12:20:49;98446.16;;;10.08;36.13
26083;BME280;13848;49.018;12.078;2023-02-28T12:23:30;98449.56;;;10.24;37.46
26083;BME280;13848;49.018;12.078;2023-02-28T12:26:13;98448.34;;;10.26;36.43
26083;BME280;13848;49.018;12.078;2023-02-28T12:28:43;98431.91;;;10.89;37.47
26083;BME280;13848;49.018;12.078;2023-02-28T12:31:14;98439.91;;;10.49;35.49
26083;BME280;13848;49.018;12.078;2023-02-28T12:33:47;98428.88;;;10.37;38.84
26083;BME280;13848;49.018;12.078;2023-02-28T12:36:16;98433.16;;;11.59;35.58
26083;BME280;13848;49.018;12.078;2023-02-28T12:38:45;98430.81;;;10.44;35.68
26083;BME280;13848;49.018;12.078;2023-02-28T12:41:17;98428.41;;;10.95;36.36
26083;BME280;13848;49.018;12.078;2023-02-28T12:43:47;98423.25;;;11.20;34.49
26083;BME280;13848;49.018;12.078;2023-02-28T12:46:17;98411.97;;;10.70;36.64
26083;BME280;13848;49.018;12.078;2023-02-28T12:48:47;98419.09;;;10.23;35.74
26083;BME280;13848;49.018;12.078;2023-02-28T12:51:16;98414.50;;;10.85;35.32
26083;BME280;13848;49.018;12.078;2023-02-28T12:53:54;98415.97;;;11.14;35.67
26083;BME280;13848;49.018;12.078;2023-02-28T12:56:32;98414.75;;;9.53;35.15
26083;BME280;13848;49.018;12.078;2023-02-28T12:59:02;98421.44;;;9.57;36.36
26083;BME280;13848;49.018;12.078;2023-02-28T13:01:42;98416.41;;;9.89;36.44
26083;BME280;13848;49.018;12.078;2023-02-28T13:07:41;98406.03;;;9.16;34.84
26083;BME280;13848;49.018;12.078;2023-02-28T13:10:09;98410.16;;;9.47;36.02
26083;BME280;13848;49.018;12.078;2023-02-28T13:12:47;98403.47;;;10.12;36.50